Time;durP1;ratioP1;P1;durP2;ratioP2;P2;SDS_P1;SDS_P2;PMS_P1;PMS_P2;Temp;Humidity;BMP_temperature;BMP_pressure;BME280_temperature;BME280_humidity;BME280_pressure;Samples;Min_cycle;Max_cycle;Signal;HPM_P1;HPM_P2
2022/01/15 00:00:28;;;;;;;14.25;9.57;;;8.60;86.70;;;;;;5010655;28;20113;-74
2022/01/15 00:02:54;;;;;;;15.18;9.23;;;8.60;86.70;;;;;;5009500;28;20554;-76
2022/01/15 00:05:21;;;;;;;12.65;9.20;;;8.60;86.70;;;;;;5009882;28;20080;-77
2022/01/15 00:07:48;;;;;;;12.77;9.02;;;8.60;86.70;;;;;;5009100;28;20034;-75
2022/01/15 00:10:15;;;;;;;14.23;9.93;;;8.60;86.80;;;;;;5009382;28;20026;-76
2022/01/15 00:12:41;;;;;;;14.60;9.68;;;8.60;86.70;;;;;;5010347;28;20029;-76
2022/01/15 00:15:12;;;;;;;13.25;9.45;;;8.60;86.70;;;;;;5010778;28;20045;-77
2022/01/15 00:17:56;;;;;;;13.63;8.90;;;8.60;86.70;;;;;;5010721;28;20558;-76
2022/01/15 00:20:23;;;;;;;13.52;8.98;;;8.60;86.70;;;;;;5010241;28;20053;-74
2022/01/15 00:22:51;;;;;;;12.27;8.90;;;8.60;86.80;;;;;;5008373;28;20033;-76
2022/01/15 00:25:18;;;;;;;13.55;9.38;;;8.60;86.80;;;;;;5010514;28;20034;-75
2022/01/15 00:27:43;;;;;;;13.88;9.30;;;8.60;86.80;;;;;;5008905;28;20456;-74
2022/01/15 00:30:10;;;;;;;13.05;9.32;;;8.60;86.90;;;;;;5010396;28;20050;-77
2022/01/15 00:32:36;;;;;;;12.15;8.82;;;8.60;86.80;;;;;;5008426;28;20030;-75
2022/01/15 00:35:03;;;;;;;13.57;9.85;;;8.60;86.80;;;;;;5009123;28;20021;-76
2022/01/15 00:37:31;;;;;;;13.18;9.30;;;8.60;86.90;;;;;;5008684;28;20092;-77
2022/01/15 00:39:58;;;;;;;12.50;9.10;;;8.60;86.80;;;;;;5008926;28;20854;-78
2022/01/15 00:42:24;;;;;;;13.05;9.40;;;8.50;86.80;;;;;;5008431;28;20033;-77
2022/01/15 00:44:50;;;;;;;14.13;9.52;;;8.60;86.80;;;;;;5008689;28;20022;-77
2022/01/15 00:47:16;;;;;;;12.90;9.50;;;8.50;86.70;;;;;;5009924;28;20018;-76
2022/01/15 00:49:42;;;;;;;13.32;9.50;;;8.60;86.80;;;;;;5008560;28;20510;-77
2022/01/15 00:52:07;;;;;;;14.02;9.32;;;8.50;86.80;;;;;;5008262;28;20026;-75
2022/01/15 00:54:33;;;;;;;15.60;10.27;;;8.50;87.30;;;;;;5009885;28;20034;-78
2022/01/15 00:56:58;;;;;;;14.30;10.00;;;8.60;86.90;;;;;;5009739;28;20033;-77
2022/01/15 00:59:24;;;;;;;13.25;9.32;;;8.50;86.80;;;;;;5008328;28;20400;-76
2022/01/15 01:01:49;;;;;;;13.73;9.15;;;8.50;86.90;;;;;;5009316;28;20531;-76
2022/01/15 01:04:15;;;;;;;13.05;8.63;;;8.60;86.90;;;;;;5009401;28;20030;-75
2022/01/15 01:06:40;;;;;;;12.55;8.65;;;8.60;86.90;;;;;;5008134;28;20129;-75
2022/01/15 01:09:06;;;;;;;13.10;9.50;;;8.60;86.90;;;;;;5009415;28;20084;-76
2022/01/15 01:12:24;;;;;;;13.75;9.13;;;8.50;86.80;;;;;;5009148;28;20476;-77
2022/01/15 01:20:09;;;;;;;13.65;9.13;;;8.60;86.90;;;;;;5009412;28;20408;-76
2022/01/15 01:25:20;;;;;;;13.13;9.38;;;8.60;86.90;;;;;;5009170;28;20445;-76
2022/01/15 01:27:50;;;;;;;13.13;8.95;;;8.50;86.90;;;;;;5009415;28;20026;-78
2022/01/15 01:30:25;;;;;;;13.45;9.00;;;8.50;86.90;;;;;;5009607;28;20076;-77
2022/01/15 01:33:04;;;;;;;12.65;9.00;;;8.60;86.90;;;;;;5007666;28;20026;-76
2022/01/15 01:35:39;;;;;;;13.52;9.05;;;8.60;86.90;;;;;;5009312;28;20535;-76
2022/01/15 01:40:58;;;;;;;16.23;9.30;;;8.60;86.90;;;;;;4992859;28;20730;-76
2022/01/15 01:46:11;;;;;;;12.80;8.95;;;8.60;86.90;;;;;;5008997;28;20109;-77
2022/01/15 01:48:37;;;;;;;14.38;9.57;;;8.60;87.00;;;;;;5008938;28;20030;-74
2022/01/15 01:51:06;;;;;;;13.23;9.48;;;8.60;87.00;;;;;;5008883;28;20176;-76
2022/01/15 01:53:32;;;;;;;13.55;9.20;;;8.50;87.00;;;;;;5007620;28;20472;-75
2022/01/15 01:55:58;;;;;;;13.93;9.60;;;8.50;87.00;;;;;;5008760;28;20034;-75
2022/01/15 01:58:23;;;;;;;13.98;9.18;;;8.60;87.00;;;;;;5007426;28;20537;-77
2022/01/15 02:00:49;;;;;;;15.02;10.07;;;8.60;87.10;;;;;;5008558;28;20034;-74
2022/01/15 02:03:14;;;;;;;13.70;9.65;;;8.60;87.10;;;;;;5008901;28;20108;-76
2022/01/15 02:05:40;;;;;;;13.70;9.23;;;8.50;87.00;;;;;;5009119;28;20757;-76
2022/01/15 02:08:05;;;;;;;13.23;9.30;;;8.60;87.10;;;;;;5008163;28;20037;-75
2022/01/15 02:10:32;;;;;;;13.30;8.88;;;8.50;87.10;;;;;;5008532;28;20090;-75
2022/01/15 02:12:57;;;;;;;14.32;9.70;;;8.50;87.00;;;;;;5008542;28;20025;-77
2022/01/15 02:15:24;;;;;;;14.55;9.68;;;8.60;87.10;;;;;;5008669;28;20052;-76
2022/01/15 02:17:50;;;;;;;14.02;9.40;;;8.60;87.10;;;;;;5007289;28;20096;-76
2022/01/15 02:25:49;;;;;;;14.20;9.45;;;8.60;87.10;;;;;;5008756;28;20541;-75
2022/01/15 02:28:17;;;;;;;14.50;9.70;;;8.60;87.20;;;;;;5007445;28;20053;-76
2022/01/15 02:30:43;;;;;;;15.88;10.20;;;8.60;87.30;;;;;;5008482;28;20109;-75
2022/01/15 02:33:08;;;;;;;12.48;8.73;;;8.60;87.20;;;;;;5008662;28;20113;-76
2022/01/15 02:35:34;;;;;;;13.40;9.10;;;8.60;87.20;;;;;;5007268;28;20034;-75
2022/01/15 02:38:04;;;;;;;13.82;9.38;;;8.50;87.20;;;;;;5007365;28;20080;-76
2022/01/15 02:40:33;;;;;;;13.70;9.35;;;8.60;87.30;;;;;;5008191;28;20026;-73
2022/01/15 02:43:04;;;;;;;12.52;8.55;;;8.60;87.30;;;;;;5008538;28;20022;-76
2022/01/15 02:45:32;;;;;;;14.88;9.80;;;8.60;87.30;;;;;;5009695;28;20022;-78
2022/01/15 02:48:01;;;;;;;14.15;9.88;;;8.60;87.30;;;;;;5011986;28;20026;-73
2022/01/15 02:50:27;;;;;;;14.73;9.88;;;8.60;87.30;;;;;;5012129;28;20026;-75
2022/01/15 02:52:52;;;;;;;14.02;9.18;;;8.60;87.30;;;;;;5010718;28;20026;-76
2022/01/15 02:55:18;;;;;;;13.93;9.80;;;8.60;87.40;;;;;;5012220;28;20484;-76
2022/01/15 02:57:44;;;;;;;14.25;9.70;;;8.50;87.30;;;;;;5010640;28;20029;-75
2022/01/15 03:00:10;;;;;;;15.77;9.65;;;8.60;87.40;;;;;;5010825;28;20091;-76
2022/01/15 03:02:36;;;;;;;15.25;10.30;;;8.60;87.30;;;;;;5011665;28;20022;-76
2022/01/15 03:05:01;;;;;;;15.20;10.07;;;8.60;87.90;;;;;;5010711;28;20502;-76
2022/01/15 03:07:27;;;;;;;14.88;10.02;;;8.60;87.40;;;;;;5011290;28;20041;-76
2022/01/15 03:09:52;;;;;;;13.93;9.68;;;8.60;87.40;;;;;;5011729;28;20026;-76
2022/01/15 03:12:18;;;;;;;14.50;10.00;;;8.60;87.40;;;;;;5011355;28;20506;-74
2022/01/15 03:14:46;;;;;;;14.85;10.00;;;8.60;87.50;;;;;;5011895;28;20503;-76
2022/01/15 03:17:12;;;;;;;16.15;10.43;;;8.60;87.50;;;;;;5011857;28;20494;-75
2022/01/15 03:19:37;;;;;;;16.45;10.43;;;8.60;87.50;;;;;;5010265;28;20026;-76
2022/01/15 03:22:04;;;;;;;15.75;10.18;;;8.60;87.50;;;;;;5025869;28;20026;-74
2022/01/15 03:24:29;;;;;;;15.10;10.13;;;8.60;87.40;;;;;;5011118;28;20060;-76
2022/01/15 03:26:55;;;;;;;14.80;9.73;;;8.60;87.50;;;;;;5026581;28;20480;-74
2022/01/15 03:29:20;;;;;;;15.80;10.18;;;8.60;87.50;;;;;;5011406;28;20030;-76
2022/01/15 03:31:46;;;;;;;15.70;10.60;;;8.60;87.50;;;;;;5009685;28;20164;-75
2022/01/15 03:34:11;;;;;;;16.98;9.95;;;8.60;87.60;;;;;;5011266;28;20022;-76
2022/01/15 03:36:37;;;;;;;15.07;9.93;;;8.60;87.50;;;;;;5011188;28;20547;-75
2022/01/15 03:39:03;;;;;;;15.98;9.95;;;8.60;87.60;;;;;;5011034;28;20514;-78
2022/01/15 03:41:28;;;;;;;15.70;10.32;;;8.60;87.60;;;;;;5010961;28;20097;-76
2022/01/15 03:43:54;;;;;;;17.25;11.68;;;8.60;87.60;;;;;;5009949;28;20165;-74
2022/01/15 03:46:22;;;;;;;15.70;9.95;;;8.60;87.60;;;;;;5011066;28;20081;-78
2022/01/15 03:48:48;;;;;;;16.70;11.20;;;8.60;87.50;;;;;;5011254;28;20036;-75
2022/01/15 03:51:19;;;;;;;15.60;10.38;;;8.60;87.60;;;;;;5010736;28;20100;-75
2022/01/15 03:53:45;;;;;;;16.27;10.68;;;8.60;87.60;;;;;;5009999;28;20030;-75
2022/01/15 03:56:10;;;;;;;18.13;10.98;;;8.60;87.60;;;;;;5008923;28;20026;-76
2022/01/15 03:58:36;;;;;;;18.08;11.38;;;8.60;87.50;;;;;;5010583;28;20041;-76
2022/01/15 04:01:01;;;;;;;17.00;11.15;;;8.60;87.50;;;;;;5010631;28;20115;-76
2022/01/15 04:03:27;;;;;;;16.83;11.07;;;8.60;87.50;;;;;;5009657;28;20062;-76
2022/01/15 04:05:52;;;;;;;16.38;10.93;;;8.60;87.50;;;;;;5010620;28;20033;-75
2022/01/15 04:08:18;;;;;;;17.95;11.18;;;8.60;87.50;;;;;;5010075;28;20038;-76
2022/01/15 04:10:43;;;;;;;17.80;11.38;;;8.60;87.60;;;;;;5009411;28;20033;-76
2022/01/15 04:13:10;;;;;;;16.67;10.65;;;8.60;87.60;;;;;;5010520;28;20719;-76
2022/01/15 04:15:35;;;;;;;16.52;10.73;;;8.60;87.50;;;;;;5010366;28;20495;-76
2022/01/15 04:18:01;;;;;;;18.02;11.27;;;8.60;87.60;;;;;;5010596;28;20034;-76
2022/01/15 04:20:27;;;;;;;18.38;11.52;;;8.60;87.60;;;;;;5010314;28;20030;-75
2022/01/15 04:22:53;;;;;;;17.95;11.55;;;8.60;87.50;;;;;;5010315;28;20084;-76
2022/01/15 04:25:19;;;;;;;18.30;11.00;;;8.60;87.60;;;;;;5009109;28;20057;-76
2022/01/15 04:27:46;;;;;;;18.58;11.98;;;8.60;87.50;;;;;;5009074;28;20050;-79
2022/01/15 04:30:13;;;;;;;18.48;11.63;;;8.60;87.50;;;;;;5008762;28;20058;-75
2022/01/15 04:32:40;;;;;;;17.83;11.68;;;8.60;87.50;;;;;;5009930;28;20054;-76
2022/01/15 04:35:06;;;;;;;18.15;11.40;;;8.60;87.60;;;;;;5008945;28;20030;-76
2022/01/15 04:37:41;;;;;;;17.35;11.43;;;8.60;87.50;;;;;;5008923;28;20096;-75
2022/01/15 04:40:09;;;;;;;18.02;11.45;;;8.60;87.60;;;;;;5010118;28;20143;-76
2022/01/15 04:42:35;;;;;;;18.55;12.20;;;8.60;87.50;;;;;;5008301;28;20026;-74
2022/01/15 04:45:03;;;;;;;17.10;11.10;;;8.60;87.50;;;;;;5009807;28;20105;-77
2022/01/15 04:47:29;;;;;;;18.27;11.85;;;8.60;87.50;;;;;;5009392;28;20101;-75
2022/01/15 04:49:55;;;;;;;18.23;12.07;;;8.60;87.60;;;;;;5009264;28;20030;-76
2022/01/15 04:52:24;;;;;;;17.50;11.27;;;8.60;87.60;;;;;;5009554;28;20037;-76
2022/01/15 04:54:49;;;;;;;18.25;11.35;;;8.60;87.60;;;;;;5009850;28;20021;-74
2022/01/15 04:57:15;;;;;;;18.70;12.05;;;8.60;88.10;;;;;;5008600;28;20080;-76
2022/01/15 04:59:41;;;;;;;19.38;11.30;;;8.60;87.60;;;;;;5009697;28;20034;-78
2022/01/15 05:02:06;;;;;;;18.48;11.48;;;8.60;87.50;;;;;;5008328;28;20104;-75
2022/01/15 05:04:32;;;;;;;17.90;10.98;;;8.60;87.50;;;;;;5008473;28;20026;-77
2022/01/15 05:06:57;;;;;;;18.77;12.32;;;8.60;87.50;;;;;;5007729;28;20056;-76
2022/01/15 05:09:23;;;;;;;18.92;12.20;;;8.60;87.50;;;;;;5009145;28;20543;-78
2022/01/15 05:12:12;;;;;;;19.33;11.63;;;8.60;87.60;;;;;;5009161;28;20096;-75
2022/01/15 05:14:34;;;;;;;19.70;12.02;;;8.60;87.60;;;;;;5009159;28;20117;-78
2022/01/15 05:17:01;;;;;;;19.90;12.57;;;8.60;87.60;;;;;;5008454;28;20125;-75
2022/01/15 05:19:27;;;;;;;19.30;12.23;;;8.60;87.60;;;;;;5009270;28;20036;-74
2022/01/15 05:21:55;;;;;;;19.45;12.27;;;8.60;87.60;;;;;;5007888;28;20109;-76
2022/01/15 05:24:22;;;;;;;19.65;12.52;;;8.60;87.60;;;;;;5009216;28;20076;-75
2022/01/15 05:26:48;;;;;;;19.83;11.82;;;8.60;87.50;;;;;;5009320;28;20029;-79
2022/01/15 05:29:13;;;;;;;18.67;12.05;;;8.60;87.60;;;;;;5009187;28;20030;-75
2022/01/15 05:31:39;;;;;;;20.73;13.23;;;8.60;87.60;;;;;;5007847;28;20029;-76
2022/01/15 05:34:04;;;;;;;21.92;13.13;;;8.60;87.60;;;;;;5009211;28;20030;-74
2022/01/15 05:36:31;;;;;;;20.70;12.57;;;8.60;87.60;;;;;;5009159;28;20121;-76
2022/01/15 05:38:56;;;;;;;19.67;12.75;;;8.60;87.60;;;;;;5009131;28;20025;-75
2022/01/15 05:41:22;;;;;;;20.60;12.98;;;8.60;87.60;;;;;;5009157;28;20024;-75
2022/01/15 05:43:48;;;;;;;20.70;12.55;;;8.60;87.60;;;;;;5009242;28;20105;-75
2022/01/15 05:46:13;;;;;;;19.80;12.05;;;8.60;87.60;;;;;;5009030;28;20033;-76
2022/01/15 05:48:39;;;;;;;19.85;12.70;;;8.60;87.60;;;;;;5009005;28;20419;-77
2022/01/15 05:51:04;;;;;;;20.23;12.30;;;8.60;87.70;;;;;;5008650;28;20037;-75
2022/01/15 05:53:30;;;;;;;19.08;12.07;;;8.60;87.60;;;;;;5009032;28;20041;-75
2022/01/15 05:55:55;;;;;;;19.92;12.20;;;8.60;87.70;;;;;;5007792;28;20492;-76
2022/01/15 05:58:21;;;;;;;19.20;11.85;;;8.60;87.60;;;;;;5008833;28;20042;-77
2022/01/15 06:00:46;;;;;;;19.60;12.02;;;8.60;87.70;;;;;;5023878;28;20033;-74
2022/01/15 06:03:12;;;;;;;19.67;12.23;;;8.60;87.70;;;;;;5008862;28;20041;-76
2022/01/15 06:05:37;;;;;;;20.52;12.32;;;8.60;87.80;;;;;;5006907;28;20041;-78
2022/01/15 06:08:03;;;;;;;19.45;11.80;;;8.60;87.80;;;;;;5008207;28;20026;-75
2022/01/15 06:10:29;;;;;;;20.00;12.45;;;8.60;87.80;;;;;;5008582;28;20076;-75
2022/01/15 06:12:54;;;;;;;20.60;12.20;;;8.60;87.80;;;;;;5007330;28;20884;-76
2022/01/15 06:15:20;;;;;;;20.88;12.88;;;8.60;87.90;;;;;;5008877;28;20030;-78
2022/01/15 06:17:45;;;;;;;21.13;13.23;;;8.60;87.90;;;;;;5008867;28;20033;-75
2022/01/15 06:20:12;;;;;;;20.30;12.45;;;8.60;87.90;;;;;;5008374;28;20033;-76
2022/01/15 06:22:38;;;;;;;19.60;12.65;;;8.60;87.90;;;;;;5012442;28;20050;-77
2022/01/15 06:25:04;;;;;;;20.15;12.73;;;8.60;87.80;;;;;;5012774;28;20058;-76
2022/01/15 06:27:31;;;;;;;19.23;12.10;;;8.60;87.80;;;;;;5012715;28;20029;-77
2022/01/15 06:29:58;;;;;;;19.77;12.40;;;8.60;87.90;;;;;;5027844;28;20042;-77
2022/01/15 06:32:25;;;;;;;20.35;12.50;;;8.60;87.90;;;;;;5012420;28;20577;-76
2022/01/15 06:34:50;;;;;;;19.40;12.43;;;8.60;87.90;;;;;;5012243;28;20113;-75
2022/01/15 06:37:16;;;;;;;19.45;12.07;;;8.60;87.90;;;;;;5011383;28;20058;-76
2022/01/15 06:39:42;;;;;;;19.25;12.15;;;8.60;87.90;;;;;;5012459;28;20399;-75
2022/01/15 06:42:07;;;;;;;18.70;11.80;;;8.60;88.00;;;;;;5012068;28;20077;-78
2022/01/15 06:44:33;;;;;;;19.35;12.55;;;8.60;88.00;;;;;;5011016;28;20555;-76
2022/01/15 06:46:58;;;;;;;18.65;11.52;;;8.60;87.90;;;;;;5011556;28;20053;-76
2022/01/15 06:49:24;;;;;;;20.33;12.48;;;8.60;88.00;;;;;;5012387;28;20132;-76
2022/01/15 06:51:49;;;;;;;20.00;12.43;;;8.60;88.00;;;;;;5011874;28;20026;-75
2022/01/15 06:54:15;;;;;;;20.75;12.52;;;8.60;88.10;;;;;;5012269;28;20033;-74
2022/01/15 06:56:40;;;;;;;21.00;12.10;;;8.60;88.00;;;;;;5013233;28;20033;-74
2022/01/15 06:59:06;;;;;;;19.58;11.80;;;8.60;88.10;;;;;;5012986;28;20466;-75
2022/01/15 07:01:32;;;;;;;19.23;11.48;;;8.60;88.10;;;;;;5012121;28;20770;-75
2022/01/15 07:03:57;;;;;;;20.67;12.88;;;8.60;88.10;;;;;;5009825;28;20030;-75
2022/01/15 07:06:23;;;;;;;21.00;13.02;;;8.60;88.10;;;;;;5013054;28;20710;-75
2022/01/15 07:08:48;;;;;;;20.02;12.68;;;8.60;88.70;;;;;;5013504;28;20760;-76
2022/01/15 07:11:14;;;;;;;19.00;12.43;;;8.60;88.10;;;;;;5028383;28;20506;-75
2022/01/15 07:13:39;;;;;;;20.13;12.68;;;8.60;88.20;;;;;;5013170;28;20036;-74
2022/01/15 07:16:05;;;;;;;17.90;11.48;;;8.60;88.20;;;;;;5011939;28;20065;-75
2022/01/15 07:18:31;;;;;;;19.98;12.63;;;8.70;88.30;;;;;;5013163;28;20037;-74
2022/01/15 07:20:57;;;;;;;18.70;12.13;;;8.60;88.20;;;;;;5028054;28;20185;-74
2022/01/15 07:23:22;;;;;;;21.13;13.10;;;8.60;88.20;;;;;;5013003;28;20541;-74
2022/01/15 07:25:48;;;;;;;18.20;11.43;;;8.60;88.30;;;;;;5012076;28;20069;-76
2022/01/15 07:28:13;;;;;;;18.05;11.48;;;8.60;88.70;;;;;;5012778;28;20034;-77
2022/01/15 07:30:39;;;;;;;17.75;11.95;;;8.60;88.30;;;;;;5012070;28;20025;-75
2022/01/15 07:33:05;;;;;;;19.30;12.15;;;8.60;88.20;;;;;;5011456;28;20033;-75
2022/01/15 07:35:30;;;;;;;17.98;11.65;;;8.60;88.40;;;;;;5013031;28;20025;-75
2022/01/15 07:37:56;;;;;;;19.45;12.05;;;8.60;88.40;;;;;;5011743;28;20030;-76
2022/01/15 07:40:22;;;;;;;19.27;11.95;;;8.60;88.30;;;;;;5011084;28;20033;-75
2022/01/15 07:42:48;;;;;;;19.05;11.60;;;8.60;88.20;;;;;;5012625;28;20088;-76
2022/01/15 07:45:16;;;;;;;19.40;12.18;;;8.60;88.30;;;;;;5012924;28;20022;-74
2022/01/15 07:47:42;;;;;;;19.50;12.38;;;8.60;88.20;;;;;;5012305;28;20087;-77
2022/01/15 07:50:11;;;;;;;19.52;12.35;;;8.70;88.30;;;;;;5013069;28;20037;-74
2022/01/15 07:52:37;;;;;;;20.55;12.25;;;8.60;88.20;;;;;;5011206;28;20038;-76
2022/01/15 07:55:04;;;;;;;19.10;12.40;;;8.60;88.30;;;;;;5013254;28;20026;-74
2022/01/15 07:57:29;;;;;;;19.58;12.10;;;8.70;88.30;;;;;;5013156;28;20025;-77
2022/01/15 07:59:55;;;;;;;19.15;12.32;;;8.60;88.20;;;;;;5011305;28;20034;-81
2022/01/15 08:02:20;;;;;;;19.23;12.05;;;8.70;88.00;;;;;;5011628;28;20026;-75
2022/01/15 08:04:46;;;;;;;20.30;12.10;;;8.70;87.90;;;;;;5011626;28;20065;-77
2022/01/15 08:07:11;;;;;;;20.92;11.77;;;8.70;88.10;;;;;;5011891;28;20113;-74
2022/01/15 08:09:38;;;;;;;22.08;13.35;;;8.70;88.10;;;;;;5013108;28;20036;-77
2022/01/15 08:12:04;;;;;;;18.30;11.68;;;8.70;88.20;;;;;;5011384;28;20037;-78
2022/01/15 08:14:30;;;;;;;22.00;12.68;;;8.70;88.30;;;;;;5012072;28;20435;-76
2022/01/15 08:16:56;;;;;;;23.05;13.20;;;8.70;88.40;;;;;;5013322;28;20030;-78
2022/01/15 08:19:21;;;;;;;22.20;13.05;;;8.60;88.30;;;;;;5013451;28;20824;-76
2022/01/15 08:21:47;;;;;;;24.45;13.15;;;8.60;88.40;;;;;;5011060;28;20070;-76
2022/01/15 08:24:12;;;;;;;21.08;13.15;;;8.60;88.50;;;;;;5011183;28;20018;-79
2022/01/15 08:26:38;;;;;;;19.63;12.02;;;8.70;88.60;;;;;;5010745;28;20852;-77
2022/01/15 08:29:04;;;;;;;21.25;12.98;;;8.60;88.60;;;;;;5012489;28;20026;-77
2022/01/15 08:31:29;;;;;;;20.02;13.15;;;8.70;88.70;;;;;;5012238;28;20562;-77
2022/01/15 08:33:55;;;;;;;21.17;14.07;;;8.60;88.80;;;;;;5012246;28;20053;-77
2022/01/15 08:36:21;;;;;;;21.25;12.90;;;8.60;88.80;;;;;;5004408;28;20488;-76
2022/01/15 08:38:47;;;;;;;19.95;12.98;;;8.60;88.90;;;;;;5011117;28;20125;-79
2022/01/15 08:41:14;;;;;;;19.50;12.57;;;8.60;88.90;;;;;;5011686;28;20116;-76
2022/01/15 08:43:42;;;;;;;21.90;13.77;;;8.60;89.00;;;;;;5011460;28;20049;-76
2022/01/15 08:46:08;;;;;;;21.13;13.63;;;8.60;89.00;;;;;;5011131;28;20537;-77
2022/01/15 08:48:33;;;;;;;21.92;13.52;;;8.60;89.00;;;;;;5025294;28;20021;-78
2022/01/15 08:50:59;;;;;;;21.23;14.05;;;8.60;89.10;;;;;;5008137;28;20539;-75
2022/01/15 08:53:25;;;;;;;22.58;14.90;;;8.60;89.00;;;;;;5009508;28;20037;-78
2022/01/15 08:55:51;;;;;;;24.05;14.13;;;8.60;89.10;;;;;;5008468;28;20124;-76
2022/01/15 08:58:16;;;;;;;24.08;14.95;;;8.60;89.10;;;;;;5008268;28;20048;-77
2022/01/15 09:00:42;;;;;;;22.73;15.35;;;8.60;89.30;;;;;;5009289;28;20030;-75
2022/01/15 09:03:08;;;;;;;24.38;14.98;;;8.60;89.20;;;;;;5009678;28;20025;-76
2022/01/15 09:05:37;;;;;;;24.27;15.68;;;8.60;89.30;;;;;;5009733;28;20029;-77
2022/01/15 09:08:08;;;;;;;24.20;15.07;;;8.60;89.20;;;;;;5009602;28;20024;-76
2022/01/15 09:10:41;;;;;;;24.98;16.00;;;8.60;89.30;;;;;;5008359;28;20029;-77
2022/01/15 09:13:08;;;;;;;27.23;17.83;;;8.60;89.30;;;;;;5009313;28;20028;-78
2022/01/15 09:15:34;;;;;;;30.02;17.90;;;8.60;89.30;;;;;;5008371;28;20018;-76
2022/01/15 09:17:59;;;;;;;30.92;18.98;;;8.60;89.40;;;;;;5009390;28;20826;-75
2022/01/15 09:20:25;;;;;;;34.38;20.88;;;8.60;89.40;;;;;;5008337;28;20032;-74
2022/01/15 09:22:50;;;;;;;40.50;24.20;;;8.60;90.00;;;;;;5009332;28;20912;-75
2022/01/15 09:25:16;;;;;;;42.67;24.77;;;8.60;89.50;;;;;;5008388;28;20030;-76
2022/01/15 09:30:26;;;;;;;42.58;25.70;;;8.60;89.50;;;;;;5009453;28;20125;-77
2022/01/15 09:32:54;;;;;;;44.88;26.85;;;8.60;89.50;;;;;;5024407;28;20117;-78
2022/01/15 09:35:28;;;;;;;44.60;26.73;;;8.60;89.60;;;;;;5009360;28;20041;-76
2022/01/15 09:37:54;;;;;;;44.55;27.35;;;8.60;89.50;;;;;;5009465;28;20479;-76
2022/01/15 09:40:22;;;;;;;46.15;28.75;;;8.60;90.00;;;;;;5009081;28;20121;-75
2022/01/15 09:42:49;;;;;;;46.60;28.25;;;8.60;89.60;;;;;;5007842;28;20033;-77
2022/01/15 09:45:17;;;;;;;55.22;28.45;;;8.60;89.60;;;;;;5007983;28;20080;-76
2022/01/15 09:47:43;;;;;;;48.38;27.25;;;8.60;89.60;;;;;;5009349;28;20022;-77
2022/01/15 09:50:14;;;;;;;49.72;28.40;;;8.70;89.60;;;;;;5009020;28;20112;-76
2022/01/15 09:52:40;;;;;;;49.47;27.15;;;8.60;89.60;;;;;;5008936;28;20037;-79
2022/01/15 09:55:09;;;;;;;43.58;26.63;;;8.70;89.70;;;;;;5009121;28;20530;-76
2022/01/15 09:57:36;;;;;;;44.22;27.98;;;8.60;89.60;;;;;;5008615;28;20053;-77
2022/01/15 10:00:05;;;;;;;43.03;26.90;;;8.70;89.70;;;;;;5009078;28;20114;-77
2022/01/15 10:02:31;;;;;;;44.63;27.15;;;8.60;89.60;;;;;;5007703;28;20446;-77
2022/01/15 10:04:56;;;;;;;41.88;25.95;;;8.60;89.60;;;;;;5007603;28;20109;-75
2022/01/15 10:07:25;;;;;;;42.92;26.02;;;8.70;89.60;;;;;;5008893;28;20050;-77
2022/01/15 10:09:51;;;;;;;43.10;26.25;;;8.70;89.50;;;;;;5008929;28;20048;-77
2022/01/15 10:12:30;;;;;;;39.35;25.27;;;8.70;89.50;;;;;;5007585;28;20026;-77
2022/01/15 10:15:06;;;;;;;43.40;26.25;;;8.70;89.50;;;;;;5007895;28;20105;-77
2022/01/15 10:17:34;;;;;;;38.53;24.70;;;8.70;89.50;;;;;;5008873;28;20025;-79
2022/01/15 10:20:04;;;;;;;39.17;25.42;;;8.70;89.40;;;;;;5008905;28;20859;-76
2022/01/15 10:22:32;;;;;;;38.58;24.27;;;8.70;89.40;;;;;;5023720;28;20026;-77
2022/01/15 10:25:10;;;;;;;40.67;24.80;;;8.70;89.40;;;;;;5008734;28;20022;-76
2022/01/15 10:27:41;;;;;;;37.60;24.38;;;8.70;89.40;;;;;;5007678;28;20018;-76
2022/01/15 10:30:13;;;;;;;39.00;23.52;;;8.70;89.50;;;;;;5024078;28;20056;-77
2022/01/15 10:32:58;;;;;;;;;;;8.70;89.50;;;;;;5007760;28;20034;-77
2022/01/15 10:35:27;;;;;;;35.05;21.80;;;8.70;89.40;;;;;;5007561;28;19942;-79
2022/01/15 10:37:58;;;;;;;38.85;24.13;;;8.70;89.50;;;;;;5008788;28;20030;-77
2022/01/15 10:40:27;;;;;;;;;;;8.70;89.40;;;;;;5009190;28;20029;-78
2022/01/15 10:42:59;;;;;;;38.40;22.70;;;8.70;89.40;;;;;;5007473;28;19906;-76
2022/01/15 10:45:27;;;;;;;36.97;22.60;;;8.70;89.40;;;;;;5007556;28;20033;-77
2022/01/15 10:47:55;;;;;;;33.42;21.60;;;8.70;89.50;;;;;;5008739;28;20037;-76
2022/01/15 10:50:25;;;;;;;39.15;22.08;;;8.70;89.50;;;;;;5007406;28;20029;-76
2022/01/15 10:52:52;;;;;;;42.67;22.35;;;8.70;89.80;;;;;;5008390;28;20022;-79
2022/01/15 10:55:27;;;;;;;35.15;20.58;;;8.70;90.10;;;;;;5007793;28;20438;-77
2022/01/15 10:58:04;;;;;;;40.42;21.58;;;8.80;89.30;;;;;;5009256;28;20079;-76
2022/01/15 11:00:39;;;;;;;38.92;22.15;;;8.80;89.20;;;;;;5010614;28;20531;-78
2022/01/15 11:03:07;;;;;;;34.08;20.45;;;8.80;89.10;;;;;;5010667;28;20546;-79
2022/01/15 11:05:41;;;;;;;33.70;20.52;;;8.80;89.10;;;;;;5011051;28;20030;-76
2022/01/15 11:08:10;;;;;;;31.05;19.40;;;8.80;89.10;;;;;;5028041;28;20450;-77
2022/01/15 11:10:43;;;;;;;31.42;19.70;;;8.80;89.10;;;;;;5012311;28;20502;-76
2022/01/15 11:13:11;;;;;;;30.38;18.80;;;8.80;89.10;;;;;;5011082;28;20033;-78
2022/01/15 11:15:38;;;;;;;32.70;19.38;;;8.80;89.00;;;;;;5012534;28;20476;-79
2022/01/15 11:18:04;;;;;;;31.08;19.15;;;8.90;89.10;;;;;;5012940;28;20037;-76
2022/01/15 11:20:32;;;;;;;31.08;18.55;;;8.80;89.00;;;;;;5012026;28;20614;-79
2022/01/15 11:23:00;;;;;;;29.25;18.08;;;8.90;89.10;;;;;;5012132;28;20089;-75
2022/01/15 11:25:27;;;;;;;27.75;18.25;;;8.90;89.10;;;;;;5010309;28;20085;-80
2022/01/15 11:27:52;;;;;;;27.30;17.60;;;9.00;89.60;;;;;;5011901;28;20049;-77
2022/01/15 11:30:19;;;;;;;31.80;17.35;;;9.00;90.00;;;;;;5011593;28;20586;-79
2022/01/15 11:32:45;;;;;;;27.52;16.80;;;9.00;90.10;;;;;;5010150;28;20030;-77
2022/01/15 11:35:11;;;;;;;29.10;17.48;;;9.00;90.50;;;;;;5010932;28;20076;-78
2022/01/15 11:37:54;;;;;;;27.02;17.13;;;9.10;90.60;;;;;;5011356;28;20112;-78
2022/01/15 11:40:39;;;;;;;27.48;16.67;;;9.10;90.40;;;;;;5010439;28;20518;-79
2022/01/15 11:43:24;;;;;;;24.52;15.73;;;9.20;90.50;;;;;;5010387;28;20112;-77
2022/01/15 11:45:53;;;;;;;25.55;16.08;;;9.20;90.50;;;;;;5011637;28;20033;-77
2022/01/15 11:48:25;;;;;;;28.10;15.77;;;9.20;90.70;;;;;;5010834;28;20054;-78
2022/01/15 11:51:13;;;;;;;22.50;15.20;;;9.20;90.90;;;;;;5010186;28;20029;-78
2022/01/15 11:54:11;;;;;;;22.60;14.48;;;9.20;91.00;;;;;;5011702;28;20033;-76
2022/01/15 11:56:39;;;;;;;24.17;14.93;;;9.30;90.80;;;;;;5006087;28;20030;-77
2022/01/15 11:59:23;;;;;;;22.75;14.40;;;9.30;90.80;;;;;;5010311;28;20034;-75
2022/01/15 12:01:49;;;;;;;22.30;14.85;;;9.40;91.00;;;;;;5010191;28;20026;-78
2022/01/15 12:04:35;;;;;;;24.15;14.85;;;9.40;91.60;;;;;;5011598;28;20034;-76
2022/01/15 12:07:00;;;;;;;21.88;12.95;;;9.50;91.80;;;;;;5012032;28;20033;-77
2022/01/15 12:09:40;;;;;;;19.90;13.13;;;9.50;90.80;;;;;;5011815;28;20033;-76
2022/01/15 12:12:38;;;;;;;21.55;13.80;;;9.50;91.20;;;;;;5011262;28;20462;-76
2022/01/15 12:15:07;;;;;;;21.88;13.02;;;9.50;91.30;;;;;;5010596;28;20036;-76
2022/01/15 12:17:49;;;;;;;19.70;12.43;;;9.50;91.10;;;;;;5010547;28;20032;-77
2022/01/15 12:20:17;;;;;;;19.77;12.73;;;9.60;90.70;;;;;;5010651;28;20057;-77
2022/01/15 12:22:45;;;;;;;18.23;11.68;;;9.50;90.40;;;;;;5010522;28;20025;-76
2022/01/15 12:25:17;;;;;;;20.50;12.27;;;9.50;90.30;;;;;;5010413;28;20021;-76
2022/01/15 12:27:56;;;;;;;17.42;11.95;;;9.50;90.40;;;;;;5010606;28;20053;-76
2022/01/15 12:30:27;;;;;;;18.30;11.73;;;9.50;90.30;;;;;;5011453;28;20022;-77
2022/01/15 12:32:56;;;;;;;15.93;10.95;;;9.50;90.10;;;;;;5010087;28;20117;-76
2022/01/15 12:35:25;;;;;;;16.05;10.70;;;9.40;89.70;;;;;;5010521;28;20041;-76
2022/01/15 12:38:05;;;;;;;16.80;10.88;;;9.40;89.90;;;;;;5011512;28;20087;-75
2022/01/15 12:40:46;;;;;;;18.23;11.50;;;9.40;89.70;;;;;;5009503;28;20065;-80
2022/01/15 12:43:50;;;;;;;21.48;10.85;;;9.40;89.50;;;;;;5010134;28;20061;-77
2022/01/15 12:46:17;;;;;;;15.70;10.25;;;9.40;89.40;;;;;;5009068;28;20401;-76
2022/01/15 12:48:45;;;;;;;17.13;9.75;;;9.40;89.30;;;;;;5009715;28;20561;-80
2022/01/15 12:51:14;;;;;;;22.23;9.75;;;9.40;88.60;;;;;;4998924;28;20056;-81
2022/01/15 12:53:50;;;;;;;20.42;9.30;;;9.40;90.10;;;;;;5010975;28;20113;-77
2022/01/15 12:56:18;;;;;;;16.33;8.23;;;9.50;89.50;;;;;;5025292;28;20049;-77
2022/01/15 12:58:44;;;;;;;17.35;8.57;;;9.50;88.80;;;;;;5011757;28;20040;-77
2022/01/15 13:01:10;;;;;;;14.77;8.45;;;9.50;88.40;;;;;;5010561;28;20021;-77
2022/01/15 13:03:38;;;;;;;15.57;8.43;;;9.50;88.00;;;;;;5012227;28;20046;-79
2022/01/15 13:06:05;;;;;;;12.73;8.18;;;9.40;87.90;;;;;;5011092;28;20391;-80